createdAt,value
2024-01-12T00:00:29.668Z,92.44
2024-01-12T00:03:52.954Z,92.13
2024-01-12T00:07:07.070Z,91.69
2024-01-12T00:10:12.842Z,91.71
2024-01-12T00:13:16.209Z,91.67
2024-01-12T00:16:24.735Z,91.98
2024-01-12T00:19:27.973Z,92.05
2024-01-12T00:22:31.149Z,91.79
2024-01-12T00:25:34.313Z,91.49
2024-01-12T00:28:43.453Z,91.06
2024-01-12T00:31:46.681Z,91.05
2024-01-12T00:34:58.373Z,91.26
2024-01-12T00:38:07.160Z,90.97
2024-01-12T00:41:15.190Z,91.14
2024-01-12T00:44:29.062Z,91.38
2024-01-12T00:47:34.939Z,91.52
2024-01-12T00:50:45.223Z,92.19
2024-01-12T00:54:08.655Z,92.40
2024-01-12T00:57:34.043Z,92.67
2024-01-12T01:00:50.167Z,92.86
2024-01-12T01:03:53.537Z,92.78
2024-01-12T01:07:07.408Z,92.77
2024-01-12T01:10:18.806Z,93.32
2024-01-12T01:13:22.021Z,92.90
2024-01-12T01:16:30.293Z,93.02
2024-01-12T01:19:41.093Z,93.05
2024-01-12T01:22:44.348Z,93.26
2024-01-12T01:25:50.449Z,93.10
2024-01-12T01:29:02.560Z,93.55
2024-01-12T01:32:05.620Z,93.65
2024-01-12T01:35:17.514Z,93.94
2024-01-12T01:38:20.831Z,93.97
2024-01-12T01:41:24.079Z,94.14
2024-01-12T01:44:27.282Z,94.18
2024-01-12T01:47:39.867Z,94.39
2024-01-12T01:50:49.115Z,94.28
2024-01-12T01:54:02.817Z,94.21
2024-01-12T01:57:16.272Z,94.38
2024-01-12T02:00:29.944Z,94.53
2024-01-12T02:04:03.422Z,94.89
2024-01-12T02:07:18.207Z,95.17
2024-01-12T02:10:37.124Z,95.70
2024-01-12T02:14:08.482Z,95.93
2024-01-12T02:17:17.783Z,96.19
2024-01-12T02:20:29.166Z,95.91
2024-01-12T02:23:35.727Z,95.97
2024-01-12T02:26:41.438Z,95.99
2024-01-12T02:29:47.270Z,96.24
2024-01-12T02:32:56.877Z,96.37
2024-01-12T02:36:03.021Z,96.36
2024-01-12T02:39:20.149Z,96.34
2024-01-12T02:42:23.588Z,96.23
2024-01-12T02:45:29.580Z,96.06
2024-01-12T02:48:40.225Z,95.91
2024-01-12T02:51:49.718Z,95.74
2024-01-12T02:54:52.925Z,95.62
2024-01-12T02:58:08.870Z,95.72
2024-01-12T03:02:12.597Z,95.60
2024-01-12T03:08:24.899Z,95.66
2024-01-12T03:11:27.837Z,95.65
2024-01-12T03:14:30.706Z,95.65
2024-01-12T03:17:33.758Z,95.63
2024-01-12T03:20:36.773Z,95.53
2024-01-12T03:23:39.608Z,95.63
2024-01-12T03:26:42.508Z,95.66
2024-01-12T03:29:45.325Z,95.57
2024-01-12T03:32:48.299Z,95.79
2024-01-12T03:35:51.201Z,95.71
2024-01-12T03:38:55.848Z,95.55
2024-01-12T03:41:58.960Z,95.36
2024-01-12T03:45:01.980Z,95.32
2024-01-12T03:48:05.415Z,95.01
2024-01-12T03:51:08.447Z,94.93
2024-01-12T03:54:11.897Z,95.07
2024-01-12T03:57:14.708Z,95.16
2024-01-12T04:00:17.692Z,95.08
2024-01-12T04:03:20.525Z,95.06
2024-01-12T04:06:23.493Z,95.05
2024-01-12T04:09:26.362Z,95.20
2024-01-12T04:12:29.154Z,95.27
2024-01-12T04:15:31.965Z,95.48
2024-01-12T04:18:35.076Z,95.33
2024-01-12T04:21:38.057Z,95.41
2024-01-12T04:24:40.814Z,95.31
2024-01-12T04:27:43.617Z,95.59
2024-01-12T04:30:46.375Z,95.40
2024-01-12T04:33:49.311Z,95.23
2024-01-12T04:36:52.170Z,95.63
2024-01-12T04:39:55.007Z,95.85
2024-01-12T04:42:57.836Z,96.42
2024-01-12T04:46:00.783Z,96.78
2024-01-12T04:49:03.721Z,97.76
2024-01-12T04:52:06.657Z,97.37
2024-01-12T04:55:09.630Z,98.12
2024-01-12T04:58:12.496Z,98.12
2024-01-12T05:01:15.247Z,97.76
2024-01-12T05:04:18.264Z,97.78
2024-01-12T05:07:21.073Z,97.90
2024-01-12T05:10:23.849Z,98.33
2024-01-12T05:13:26.679Z,98.21
2024-01-12T05:16:29.548Z,98.21
2024-01-12T05:19:32.518Z,98.27
2024-01-12T05:22:37.125Z,98.51
2024-01-12T05:25:40.225Z,98.61
2024-01-12T05:28:43.053Z,98.61
2024-01-12T05:31:46.162Z,98.61
2024-01-12T05:34:49.074Z,98.55
2024-01-12T05:37:52.749Z,98.52
2024-01-12T05:40:55.552Z,98.51
2024-01-12T05:43:58.404Z,98.77
2024-01-12T05:47:01.269Z,98.85
2024-01-12T05:50:04.772Z,99.06
2024-01-12T05:53:08.080Z,99.10
2024-01-12T05:56:11.322Z,98.96
2024-01-12T05:59:15.602Z,99.14
2024-01-12T06:02:18.499Z,99.26
2024-01-12T06:05:21.557Z,99.55
2024-01-12T06:08:25.042Z,99.56
2024-01-12T06:11:27.877Z,99.83
2024-01-12T06:14:31.230Z,99.94
2024-01-12T06:17:34.200Z,100.00
2024-01-12T06:20:37.092Z,100.00
2024-01-12T06:23:40.102Z,100.00
2024-01-12T06:26:43.974Z,100.00
2024-01-12T06:29:46.949Z,100.00
2024-01-12T06:32:49.935Z,100.00
2024-01-12T06:35:52.831Z,100.00
2024-01-12T06:38:56.909Z,100.00
2024-01-12T06:42:00.492Z,100.00
2024-01-12T06:45:07.614Z,100.00
2024-01-12T06:48:11.538Z,100.00
2024-01-12T06:51:22.480Z,100.00
2024-01-12T06:54:25.465Z,100.00
2024-01-12T06:57:28.628Z,100.00
2024-01-12T07:00:31.460Z,100.00
2024-01-12T07:03:34.328Z,100.00
2024-01-12T07:06:37.290Z,100.00
2024-01-12T07:09:40.783Z,100.00
2024-01-12T07:12:43.575Z,100.00
2024-01-12T07:15:46.394Z,100.00
2024-01-12T07:18:49.515Z,100.00
2024-01-12T07:21:52.564Z,100.00
2024-01-12T07:24:55.446Z,100.00
2024-01-12T07:27:58.346Z,100.00
2024-01-12T07:31:01.312Z,100.00
2024-01-12T07:34:05.743Z,100.00
2024-01-12T07:37:09.202Z,100.00
2024-01-12T07:40:13.747Z,100.00
2024-01-12T07:43:16.714Z,99.95
2024-01-12T07:46:19.715Z,99.59
2024-01-12T07:49:22.514Z,99.38
2024-01-12T07:52:25.727Z,99.17
2024-01-12T07:55:28.669Z,98.95
2024-01-12T07:58:33.023Z,98.88
2024-01-12T08:01:36.128Z,98.65
2024-01-12T08:04:39.539Z,98.11
2024-01-12T08:07:42.548Z,97.93
2024-01-12T08:10:45.434Z,98.16
2024-01-12T08:13:48.196Z,97.83
2024-01-12T08:16:51.504Z,97.56
2024-01-12T08:19:54.274Z,96.89
2024-01-12T08:22:57.112Z,95.81
2024-01-12T08:25:59.869Z,95.46
2024-01-12T08:29:03.214Z,94.89
2024-01-12T08:32:06.146Z,94.84
2024-01-12T08:35:09.556Z,93.89
2024-01-12T08:38:13.465Z,93.59
2024-01-12T08:41:16.476Z,93.59
2024-01-12T08:44:19.288Z,93.19
2024-01-12T08:47:22.336Z,93.06
2024-01-12T08:50:25.739Z,92.88
2024-01-12T08:53:28.562Z,93.10
2024-01-12T08:56:31.926Z,92.87
2024-01-12T08:59:34.787Z,92.82
2024-01-12T09:02:37.622Z,92.97
2024-01-12T09:05:40.654Z,92.56
2024-01-12T09:08:43.558Z,92.47
2024-01-12T09:11:46.552Z,92.57
2024-01-12T09:14:49.500Z,92.87
2024-01-12T09:17:52.361Z,93.07
2024-01-12T09:20:55.353Z,92.95
2024-01-12T09:23:58.245Z,93.19
2024-01-12T09:27:01.114Z,92.97
2024-01-12T09:30:04.495Z,93.09
2024-01-12T09:33:07.950Z,93.49
2024-01-12T09:36:11.175Z,92.92
2024-01-12T09:39:16.315Z,92.59
2024-01-12T09:42:22.703Z,91.84
2024-01-12T09:45:26.885Z,91.30
2024-01-12T09:48:30.845Z,90.68
2024-01-12T09:51:33.784Z,90.13
2024-01-12T09:54:36.689Z,88.40
2024-01-12T09:57:40.429Z,87.76
2024-01-12T10:00:45.978Z,86.56
2024-01-12T10:03:50.016Z,85.84
2024-01-12T10:06:52.961Z,84.69
2024-01-12T10:09:55.837Z,83.55
2024-01-12T10:12:58.559Z,82.74
2024-01-12T10:16:02.949Z,82.77
2024-01-12T10:19:06.526Z,81.95
2024-01-12T10:22:15.655Z,81.22
2024-01-12T10:25:18.494Z,80.58
2024-01-12T10:28:21.394Z,80.59
2024-01-12T10:31:24.304Z,80.28
2024-01-12T10:34:35.026Z,79.41
2024-01-12T10:37:39.436Z,78.18
2024-01-12T10:40:44.554Z,76.52
2024-01-12T10:43:52.324Z,74.80
2024-01-12T10:47:03.201Z,74.48
2024-01-12T10:50:07.943Z,75.52
2024-01-12T10:53:10.809Z,75.71
2024-01-12T10:56:14.047Z,77.37
2024-01-12T10:59:17.665Z,78.89
2024-01-12T11:02:20.719Z,80.81
2024-01-12T11:05:26.713Z,81.04
2024-01-12T11:08:30.391Z,81.91
2024-01-12T11:11:41.737Z,82.97
2024-01-12T11:14:44.778Z,83.50
2024-01-12T11:17:47.767Z,83.29
2024-01-12T11:21:01.830Z,82.98
2024-01-12T11:24:04.907Z,83.34
2024-01-12T11:27:07.957Z,83.57
2024-01-12T11:30:16.138Z,83.33
2024-01-12T11:33:20.639Z,82.89
2024-01-12T11:36:32.540Z,82.71
2024-01-12T11:39:38.582Z,83.34
2024-01-12T11:42:44.341Z,84.00
2024-01-12T11:45:47.929Z,83.68
2024-01-12T11:48:52.865Z,83.34
2024-01-12T11:52:06.230Z,82.70
2024-01-12T11:55:10.921Z,82.04
2024-01-12T11:58:13.759Z,82.25
2024-01-12T12:01:16.710Z,81.82
2024-01-12T12:04:19.559Z,81.25
2024-01-12T12:07:28.826Z,80.60
2024-01-12T12:10:37.985Z,80.08
2024-01-12T12:13:46.841Z,79.76
2024-01-12T12:16:49.813Z,80.55
2024-01-12T12:19:53.106Z,81.19
2024-01-12T12:22:57.759Z,81.05
2024-01-12T12:26:00.950Z,79.53
2024-01-12T12:29:05.484Z,79.85
2024-01-12T12:32:15.069Z,79.24
2024-01-12T12:35:20.528Z,79.65
2024-01-12T12:38:23.776Z,79.26
2024-01-12T12:41:26.871Z,78.64
2024-01-12T12:44:29.947Z,78.61
2024-01-12T12:47:37.477Z,79.44
2024-01-12T12:50:40.373Z,79.61
2024-01-12T12:53:43.254Z,79.45
2024-01-12T12:56:47.591Z,79.61
2024-01-12T12:59:50.641Z,79.56
2024-01-12T13:02:53.568Z,79.88
2024-01-12T13:05:56.872Z,79.14
2024-01-12T13:08:59.843Z,79.49
2024-01-12T13:12:05.354Z,79.58
2024-01-12T13:15:10.212Z,79.44
2024-01-12T13:18:13.253Z,79.69
2024-01-12T13:21:16.653Z,79.89
2024-01-12T13:24:19.742Z,79.98
2024-01-12T13:27:22.904Z,80.48
2024-01-12T13:30:25.863Z,80.83
2024-01-12T13:33:29.066Z,81.21
2024-01-12T13:36:32.096Z,81.47
2024-01-12T13:39:35.329Z,81.80
2024-01-12T13:42:39.243Z,81.79
2024-01-12T13:45:42.118Z,82.27
2024-01-12T13:48:48.182Z,82.66
2024-01-12T13:51:51.186Z,83.19
2024-01-12T13:54:54.091Z,84.00
2024-01-12T13:57:56.916Z,84.02
2024-01-12T14:01:00.022Z,83.00
2024-01-12T14:04:06.292Z,83.10
2024-01-12T14:07:09.374Z,83.50
2024-01-12T14:10:13.182Z,83.45
2024-01-12T14:13:18.153Z,83.90
2024-01-12T14:16:21.024Z,84.00
2024-01-12T14:19:24.042Z,83.83
2024-01-12T14:22:27.941Z,84.02
2024-01-12T14:25:30.819Z,83.95
2024-01-12T14:28:34.394Z,83.76
2024-01-12T14:31:37.284Z,83.85
2024-01-12T14:34:40.439Z,84.38
2024-01-12T14:37:43.305Z,84.18
2024-01-12T14:40:46.277Z,84.51
2024-01-12T14:43:49.176Z,85.24
2024-01-12T14:46:52.111Z,85.44
2024-01-12T14:49:55.189Z,85.77
2024-01-12T14:52:58.272Z,85.89
2024-01-12T14:56:01.270Z,86.04
2024-01-12T14:59:05.505Z,85.99
2024-01-12T15:02:08.975Z,86.12
2024-01-12T15:05:14.508Z,85.61
2024-01-12T15:08:19.067Z,86.70
2024-01-12T15:11:22.160Z,86.51
2024-01-12T15:14:26.347Z,86.72
2024-01-12T15:17:29.531Z,86.33
2024-01-12T15:20:32.966Z,86.33
2024-01-12T15:23:35.883Z,87.06
2024-01-12T15:26:38.727Z,88.02
2024-01-12T15:29:41.614Z,87.62
2024-01-12T15:32:44.666Z,87.30
2024-01-12T15:35:47.712Z,87.26
2024-01-12T15:38:50.613Z,87.32
2024-01-12T15:41:54.528Z,87.50
2024-01-12T15:44:57.550Z,87.68
2024-01-12T15:48:01.159Z,87.53
2024-01-12T15:51:04.107Z,87.30
2024-01-12T15:54:07.001Z,87.67
2024-01-12T15:57:10.023Z,88.16
2024-01-12T16:00:13.839Z,87.06
2024-01-12T16:03:16.948Z,86.96
2024-01-12T16:06:19.971Z,87.17
2024-01-12T16:09:22.888Z,86.96
2024-01-12T16:12:25.859Z,86.89
2024-01-12T16:15:28.712Z,87.04
2024-01-12T16:18:31.591Z,87.78
2024-01-12T16:21:36.569Z,88.02
2024-01-12T16:24:40.013Z,87.55
2024-01-12T16:27:42.836Z,88.14
2024-01-12T16:30:46.433Z,88.52
2024-01-12T16:33:49.532Z,88.31
2024-01-12T16:36:52.499Z,88.18
2024-01-12T16:39:55.272Z,88.00
2024-01-12T16:42:58.103Z,88.02
2024-01-12T16:46:00.836Z,88.10
2024-01-12T16:49:03.890Z,88.12
2024-01-12T16:52:06.902Z,88.04
2024-01-12T16:55:09.939Z,88.15
2024-01-12T16:58:13.129Z,88.47
2024-01-12T17:01:16.523Z,88.46
2024-01-12T17:04:19.373Z,88.49
2024-01-12T17:07:22.535Z,88.61
2024-01-12T17:10:25.638Z,88.86
2024-01-12T17:13:28.508Z,88.56
2024-01-12T17:16:36.035Z,88.43
2024-01-12T17:19:39.969Z,88.89
2024-01-12T17:22:42.786Z,88.34
2024-01-12T17:25:45.631Z,88.29
2024-01-12T17:28:48.811Z,88.50
2024-01-12T17:31:51.959Z,88.51
2024-01-12T17:34:54.940Z,88.53
2024-01-12T17:37:57.827Z,89.16
2024-01-12T17:41:00.667Z,88.53
2024-01-12T17:44:03.480Z,87.84
2024-01-12T17:47:06.432Z,87.97
2024-01-12T17:50:09.573Z,88.01
2024-01-12T17:53:12.423Z,87.79
2024-01-12T17:56:15.224Z,88.05
2024-01-12T17:59:18.754Z,88.03
2024-01-12T18:02:21.563Z,88.12
2024-01-12T18:05:24.535Z,88.15
2024-01-12T18:08:27.471Z,88.20
2024-01-12T18:11:30.262Z,88.56
2024-01-12T18:14:40.090Z,88.54
2024-01-12T18:17:42.990Z,89.22
2024-01-12T18:20:46.278Z,89.24
2024-01-12T18:23:49.219Z,88.81
2024-01-12T18:26:52.021Z,89.41
2024-01-12T18:29:55.966Z,89.61
2024-01-12T18:32:59.001Z,89.38
2024-01-12T18:36:02.239Z,89.66
2024-01-12T18:39:05.428Z,89.73
2024-01-12T18:42:08.424Z,89.84
2024-01-12T18:45:11.382Z,90.03
2024-01-12T18:48:16.753Z,90.19
2024-01-12T18:51:23.426Z,90.13
2024-01-12T18:54:29.480Z,90.14
2024-01-12T18:57:32.312Z,90.58
2024-01-12T19:00:35.145Z,90.54
2024-01-12T19:03:37.980Z,90.40
2024-01-12T19:06:40.825Z,90.45
2024-01-12T19:09:43.767Z,90.49
2024-01-12T19:12:47.907Z,90.42
2024-01-12T19:15:50.811Z,90.42
2024-01-12T19:18:53.862Z,90.36
2024-01-12T19:21:56.794Z,90.42
2024-01-12T19:24:59.599Z,90.16
2024-01-12T19:28:02.439Z,90.20
2024-01-12T19:31:05.587Z,90.00
2024-01-12T19:34:08.901Z,89.82
2024-01-12T19:37:11.992Z,89.80
2024-01-12T19:40:15.061Z,89.46
2024-01-12T19:43:17.905Z,89.35
2024-01-12T19:46:20.740Z,89.36
2024-01-12T19:49:23.747Z,89.15
2024-01-12T19:52:27.318Z,89.02
2024-01-12T19:55:30.158Z,88.99
2024-01-12T19:58:33.094Z,88.95
2024-01-12T20:01:36.027Z,88.91
2024-01-12T20:04:44.729Z,88.69
2024-01-12T20:07:51.044Z,88.76
2024-01-12T20:10:54.127Z,88.96
2024-01-12T20:13:57.145Z,88.80
2024-01-12T20:17:00.032Z,88.99
2024-01-12T20:20:03.447Z,88.84
2024-01-12T20:23:06.476Z,88.84
2024-01-12T20:26:09.630Z,88.94
2024-01-12T20:29:21.758Z,88.97
2024-01-12T20:32:25.400Z,88.88
2024-01-12T20:35:28.422Z,88.92
2024-01-12T20:38:31.380Z,88.94
2024-01-12T20:41:34.322Z,88.85
2024-01-12T20:44:38.304Z,88.85
2024-01-12T20:47:41.382Z,88.85
2024-01-12T20:50:44.325Z,88.74
2024-01-12T20:53:49.673Z,88.66
2024-01-12T20:56:53.230Z,88.73
2024-01-12T20:59:56.058Z,88.50
2024-01-12T21:02:59.104Z,88.34
2024-01-12T21:06:02.334Z,88.20
2024-01-12T21:09:05.263Z,88.19
2024-01-12T21:12:08.325Z,88.16
2024-01-12T21:15:11.419Z,87.94
2024-01-12T21:18:14.619Z,88.15
2024-01-12T21:21:17.568Z,88.17
2024-01-12T21:24:20.472Z,88.22
2024-01-12T21:27:23.295Z,88.10
2024-01-12T21:30:26.477Z,88.20
2024-01-12T21:33:29.723Z,88.08
2024-01-12T21:36:32.745Z,88.09
2024-01-12T21:39:44.762Z,88.11
2024-01-12T21:42:47.582Z,88.08
2024-01-12T21:45:50.760Z,87.96
2024-01-12T21:48:53.718Z,87.97
2024-01-12T21:51:56.641Z,87.83
2024-01-12T21:54:59.485Z,87.69
2024-01-12T21:58:06.427Z,87.86
2024-01-12T22:01:09.524Z,87.83
2024-01-12T22:04:12.470Z,87.77
2024-01-12T22:07:15.502Z,87.73
2024-01-12T22:10:18.528Z,87.65
2024-01-12T22:13:21.313Z,87.77
2024-01-12T22:16:24.393Z,87.85
2024-01-12T22:19:27.335Z,87.82
2024-01-12T22:22:30.220Z,87.77
2024-01-12T22:25:32.985Z,87.77
2024-01-12T22:28:35.784Z,87.81
2024-01-12T22:31:38.585Z,87.92
2024-01-12T22:38:34.157Z,87.83
2024-01-12T22:41:37.409Z,87.87
2024-01-12T22:44:40.293Z,87.67
2024-01-12T22:47:43.231Z,87.70
2024-01-12T22:50:46.191Z,87.97
2024-01-12T22:53:49.107Z,87.85
2024-01-12T22:56:51.950Z,87.91
2024-01-12T22:59:54.836Z,87.93
2024-01-12T23:02:58.199Z,87.86
2024-01-12T23:06:01.849Z,87.95
2024-01-12T23:09:10.277Z,87.99
2024-01-12T23:12:13.418Z,87.97
2024-01-12T23:15:17.870Z,88.19
2024-01-12T23:18:20.964Z,88.17
2024-01-12T23:21:59.177Z,88.37
2024-01-12T23:25:02.096Z,88.28
2024-01-12T23:28:04.987Z,88.37
2024-01-12T23:31:07.927Z,88.51
2024-01-12T23:34:10.928Z,88.60
2024-01-12T23:37:13.952Z,88.59
2024-01-12T23:40:16.810Z,88.51
2024-01-12T23:43:19.649Z,88.54
2024-01-12T23:46:22.570Z,88.54
2024-01-12T23:49:25.458Z,88.28
2024-01-12T23:52:28.361Z,88.26
2024-01-12T23:55:31.140Z,88.32
2024-01-12T23:58:38.417Z,88.40
